sensor_id;sensor_type;location;lat;lon;timestamp;pressure;altitude;pressure_sealevel;temperature;humidity
68889;BME280;55930;47.412;8.790;2023-03-01T00:02:14;94959.31;;;-1.77;100.00
68889;BME280;55930;47.412;8.790;2023-03-01T00:05:43;94963.78;;;-1.70;100.00
68889;BME280;55930;47.412;8.790;2023-03-01T00:09:04;94966.34;;;-1.81;100.00
68889;BME280;55930;47.412;8.790;2023-03-01T00:12:24;94964.50;;;-1.73;100.00
68889;BME280;55930;47.412;8.790;2023-03-01T00:15:45;94957.09;;;-1.78;100.00
68889;BME280;55930;47.412;8.790;2023-03-01T00:19:06;94960.44;;;-1.67;100.00
68889;BME280;55930;47.412;8.790;2023-03-01T00:22:27;94944.44;;;-1.83;100.00
68889;BME280;55930;47.412;8.790;2023-03-01T00:25:51;94951.88;;;-1.75;100.00
68889;BME280;55930;47.412;8.790;2023-03-01T00:29:12;94942.22;;;-1.78;100.00
68889;BME280;55930;47.412;8.790;2023-03-01T00:32:34;94956.00;;;-1.70;100.00
68889;BME280;55930;47.412;8.790;2023-03-01T00:35:57;94940.72;;;-1.75;100.00
68889;BME280;55930;47.412;8.790;2023-03-01T00:39:18;94937.75;;;-1.74;100.00
68889;BME280;55930;47.412;8.790;2023-03-01T00:42:38;94939.66;;;-1.64;100.00
68889;BME280;55930;47.412;8.790;2023-03-01T00:46:01;94935.91;;;-1.73;100.00
68889;BME280;55930;47.412;8.790;2023-03-01T00:49:21;94937.41;;;-1.72;100.00
68889;BME280;55930;47.412;8.790;2023-03-01T00:52:44;94932.94;;;-1.79;100.00
68889;BME280;55930;47.412;8.790;2023-03-01T00:56:06;94928.88;;;-1.76;100.00
68889;BME280;55930;47.412;8.790;2023-03-01T00:59:27;94931.06;;;-1.75;100.00
68889;BME280;55930;47.412;8.790;2023-03-01T01:02:48;94926.28;;;-1.69;100.00
68889;BME280;55930;47.412;8.790;2023-03-01T01:06:31;94918.84;;;-1.71;100.00
68889;BME280;55930;47.412;8.790;2023-03-01T01:09:51;94913.25;;;-1.66;100.00
68889;BME280;55930;47.412;8.790;2023-03-01T01:13:12;94910.66;;;-1.66;100.00
68889;BME280;55930;47.412;8.790;2023-03-01T01:16:33;94909.56;;;-1.58;100.00
68889;BME280;55930;47.412;8.790;2023-03-01T01:19:53;94917.72;;;-1.77;100.00
68889;BME280;55930;47.412;8.790;2023-03-01T01:23:13;94913.25;;;-1.59;100.00
68889;BME280;55930;47.412;8.790;2023-03-01T01:26:34;94905.47;;;-1.62;100.00
68889;BME280;55930;47.412;8.790;2023-03-01T01:29:54;94901.38;;;-1.63;100.00
68889;BME280;55930;47.412;8.790;2023-03-01T01:33:15;94888.00;;;-1.58;100.00
68889;BME280;55930;47.412;8.790;2023-03-01T01:36:35;94885.03;;;-1.60;100.00
68889;BME280;55930;47.412;8.790;2023-03-01T01:39:56;94882.78;;;-1.72;100.00
68889;BME280;55930;47.412;8.790;2023-03-01T01:46:50;94885.03;;;-1.53;100.00
68889;BME280;55930;47.412;8.790;2023-03-01T01:50:16;94880.56;;;-1.67;100.00
68889;BME280;55930;47.412;8.790;2023-03-01T01:53:39;94879.84;;;-1.64;100.00
68889;BME280;55930;47.412;8.790;2023-03-01T01:57:03;94874.63;;;-1.81;100.00
68889;BME280;55930;47.412;8.790;2023-03-01T02:00:30;94874.25;;;-1.62;100.00
68889;BME280;55930;47.412;8.790;2023-03-01T02:03:50;94875.75;;;-1.61;100.00
68889;BME280;55930;47.412;8.790;2023-03-01T02:07:14;94868.31;;;-1.63;100.00
68889;BME280;55930;47.412;8.790;2023-03-01T02:10:37;94864.63;;;-1.76;100.00
68889;BME280;55930;47.412;8.790;2023-03-01T02:14:00;94868.31;;;-1.70;100.00
68889;BME280;55930;47.412;8.790;2023-03-01T02:17:23;94859.41;;;-1.65;100.00
68889;BME280;55930;47.412;8.790;2023-03-01T02:20:55;94859.03;;;-1.64;100.00
68889;BME280;55930;47.412;8.790;2023-03-01T02:31:37;94843.06;;;-1.62;100.00
68889;BME280;55930;47.412;8.790;2023-03-01T02:35:04;94839.34;;;-1.72;100.00
68889;BME280;55930;47.412;8.790;2023-03-01T02:38:27;94838.97;;;-1.74;100.00
68889;BME280;55930;47.412;8.790;2023-03-01T02:41:52;94838.59;;;-1.72;100.00
68889;BME280;55930;47.412;8.790;2023-03-01T02:45:16;94830.81;;;-1.62;100.00
68889;BME280;55930;47.412;8.790;2023-03-01T02:48:48;94839.69;;;-1.56;100.00
68889;BME280;55930;47.412;8.790;2023-03-01T02:55:44;94825.59;;;-1.72;100.00
68889;BME280;55930;47.412;8.790;2023-03-01T02:59:05;94825.97;;;-1.67;100.00
68889;BME280;55930;47.412;8.790;2023-03-01T03:02:29;94823.00;;;-1.65;100.00
68889;BME280;55930;47.412;8.790;2023-03-01T03:05:56;94820.03;;;-1.60;100.00
68889;BME280;55930;47.412;8.790;2023-03-01T03:09:18;94814.81;;;-1.60;100.00
68889;BME280;55930;47.412;8.790;2023-03-01T03:12:41;94810.00;;;-1.69;100.00
68889;BME280;55930;47.412;8.790;2023-03-01T03:16:02;94807.03;;;-1.60;100.00
68889;BME280;55930;47.412;8.790;2023-03-01T03:19:22;94805.13;;;-1.60;100.00
68889;BME280;55930;47.412;8.790;2023-03-01T03:22:43;94813.69;;;-1.59;100.00
68889;BME280;55930;47.412;8.790;2023-03-01T03:26:04;94797.34;;;-1.60;100.00
68889;BME280;55930;47.412;8.790;2023-03-01T03:29:25;94802.91;;;-1.58;100.00
68889;BME280;55930;47.412;8.790;2023-03-01T03:32:47;94801.81;;;-1.64;100.00
68889;BME280;55930;47.412;8.790;2023-03-01T03:36:17;94809.25;;;-1.55;100.00
68889;BME280;55930;47.412;8.790;2023-03-01T03:39:41;94805.91;;;-1.52;100.00
68889;BME280;55930;47.412;8.790;2023-03-01T03:43:03;94802.53;;;-1.60;100.00
68889;BME280;55930;47.412;8.790;2023-03-01T03:46:24;94811.47;;;-1.53;100.00
68889;BME280;55930;47.412;8.790;2023-03-01T03:49:44;94809.59;;;-1.57;100.00
68889;BME280;55930;47.412;8.790;2023-03-01T03:53:10;94804.03;;;-1.48;100.00
68889;BME280;55930;47.412;8.790;2023-03-01T03:56:31;94799.56;;;-1.55;100.00
68889;BME280;55930;47.412;8.790;2023-03-01T03:59:52;94798.81;;;-1.59;100.00
68889;BME280;55930;47.412;8.790;2023-03-01T04:03:14;94801.03;;;-1.50;100.00
68889;BME280;55930;47.412;8.790;2023-03-01T04:06:35;94799.56;;;-1.47;100.00
68889;BME280;55930;47.412;8.790;2023-03-01T04:09:57;94797.34;;;-1.56;100.00
68889;BME280;55930;47.412;8.790;2023-03-01T04:13:22;94802.16;;;-1.51;100.00
68889;BME280;55930;47.412;8.790;2023-03-01T04:16:42;94795.88;;;-1.53;100.00
68889;BME280;55930;47.412;8.790;2023-03-01T04:20:03;94791.78;;;-1.55;100.00
68889;BME280;55930;47.412;8.790;2023-03-01T04:23:25;94792.88;;;-1.56;100.00
68889;BME280;55930;47.412;8.790;2023-03-01T04:26:46;94790.66;;;-1.53;100.00
68889;BME280;55930;47.412;8.790;2023-03-01T04:30:08;94802.16;;;-1.51;100.00
68889;BME280;55930;47.412;8.790;2023-03-01T04:33:29;94796.59;;;-1.46;100.00
68889;BME280;55930;47.412;8.790;2023-03-01T04:36:49;94786.94;;;-1.56;100.00
68889;BME280;55930;47.412;8.790;2023-03-01T04:40:10;94787.66;;;-1.48;100.00
68889;BME280;55930;47.412;8.790;2023-03-01T04:43:37;94783.22;;;-1.59;100.00
68889;BME280;55930;47.412;8.790;2023-03-01T04:46:58;94782.47;;;-1.45;100.00
68889;BME280;55930;47.412;8.790;2023-03-01T04:50:19;94781.72;;;-1.49;100.00
68889;BME280;55930;47.412;8.790;2023-03-01T04:53:44;94790.28;;;-1.48;100.00
68889;BME280;55930;47.412;8.790;2023-03-01T04:57:04;94778.75;;;-1.51;100.00
68889;BME280;55930;47.412;8.790;2023-03-01T05:00:25;94780.22;;;-1.50;100.00
68889;BME280;55930;47.412;8.790;2023-03-01T05:03:47;94780.19;;;-1.32;100.00
68889;BME280;55930;47.412;8.790;2023-03-01T05:07:08;94788.75;;;-1.42;100.00
68889;BME280;55930;47.412;8.790;2023-03-01T05:10:30;94779.50;;;-1.54;100.00
68889;BME280;55930;47.412;8.790;2023-03-01T05:13:51;94779.50;;;-1.47;100.00
68889;BME280;55930;47.412;8.790;2023-03-01T05:17:15;94776.91;;;-1.50;100.00
68889;BME280;55930;47.412;8.790;2023-03-01T05:20:35;94767.59;;;-1.41;100.00
68889;BME280;55930;47.412;8.790;2023-03-01T05:23:56;94769.06;;;-1.40;100.00
68889;BME280;55930;47.412;8.790;2023-03-01T05:27:16;94769.47;;;-1.45;100.00
68889;BME280;55930;47.412;8.790;2023-03-01T05:30:37;94766.88;;;-1.45;100.00
68889;BME280;55930;47.412;8.790;2023-03-01T05:33:59;94766.84;;;-1.41;100.00
68889;BME280;55930;47.412;8.790;2023-03-01T05:37:19;94763.88;;;-1.40;100.00
68889;BME280;55930;47.412;8.790;2023-03-01T05:40:44;94750.50;;;-1.49;100.00
68889;BME280;55930;47.412;8.790;2023-03-01T05:44:06;94747.19;;;-1.53;100.00
68889;BME280;55930;47.412;8.790;2023-03-01T05:47:26;94747.91;;;-1.49;100.00
68889;BME280;55930;47.412;8.790;2023-03-01T05:50:47;94740.81;;;-1.41;100.00
68889;BME280;55930;47.412;8.790;2023-03-01T05:54:10;94743.06;;;-1.40;100.00
68889;BME280;55930;47.412;8.790;2023-03-01T05:57:30;94734.53;;;-1.47;100.00
68889;BME280;55930;47.412;8.790;2023-03-01T06:00:50;94733.78;;;-1.44;100.00
68889;BME280;55930;47.412;8.790;2023-03-01T06:04:13;94728.94;;;-1.39;100.00
68889;BME280;55930;47.412;8.790;2023-03-01T06:07:34;94732.66;;;-1.36;100.00
68889;BME280;55930;47.412;8.790;2023-03-01T06:10:55;94725.19;;;-1.34;100.00
68889;BME280;55930;47.412;8.790;2023-03-01T06:14:15;94729.69;;;-1.38;100.00
68889;BME280;55930;47.412;8.790;2023-03-01T06:17:38;94730.06;;;-1.40;100.00
68889;BME280;55930;47.412;8.790;2023-03-01T06:20:59;94727.78;;;-1.34;100.00
68889;BME280;55930;47.412;8.790;2023-03-01T06:24:19;94721.72;;;-1.03;100.00
68889;BME280;55930;47.412;8.790;2023-03-01T06:27:40;94721.34;;;-0.98;100.00
68889;BME280;55930;47.412;8.790;2023-03-01T06:31:01;94733.22;;;-0.97;100.00
68889;BME280;55930;47.412;8.790;2023-03-01T06:34:22;94735.44;;;-0.95;100.00
68889;BME280;55930;47.412;8.790;2023-03-01T06:37:43;94727.25;;;-0.90;100.00
68889;BME280;55930;47.412;8.790;2023-03-01T06:41:03;94728.38;;;-0.91;100.00
68889;BME280;55930;47.412;8.790;2023-03-01T06:44:24;94735.13;;;-1.04;100.00
68889;BME280;55930;47.412;8.790;2023-03-01T06:47:44;94734.72;;;-0.99;100.00
68889;BME280;55930;47.412;8.790;2023-03-01T06:51:07;94734.00;;;-1.07;100.00
68889;BME280;55930;47.412;8.790;2023-03-01T06:54:28;94736.91;;;-0.91;100.00
68889;BME280;55930;47.412;8.790;2023-03-01T06:57:53;94739.22;;;-1.10;100.00
68889;BME280;55930;47.412;8.790;2023-03-01T07:01:13;94733.69;;;-1.20;100.00
68889;BME280;55930;47.412;8.790;2023-03-01T07:04:34;94734.41;;;-1.19;100.00
68889;BME280;55930;47.412;8.790;2023-03-01T07:07:54;94733.69;;;-1.20;100.00
68889;BME280;55930;47.412;8.790;2023-03-01T07:11:16;94739.28;;;-1.21;100.00
68889;BME280;55930;47.412;8.790;2023-03-01T07:14:36;94727.03;;;-1.21;100.00
68889;BME280;55930;47.412;8.790;2023-03-01T07:17:57;94732.59;;;-1.22;100.00
68889;BME280;55930;47.412;8.790;2023-03-01T07:21:17;94724.00;;;-1.19;100.00
68889;BME280;55930;47.412;8.790;2023-03-01T07:24:37;94728.84;;;-1.18;100.00
68889;BME280;55930;47.412;8.790;2023-03-01T07:28:00;94734.00;;;-1.07;100.00
68889;BME280;55930;47.412;8.790;2023-03-01T07:31:23;94727.69;;;-1.09;100.00
68889;BME280;55930;47.412;8.790;2023-03-01T07:34:44;94741.00;;;-0.90;100.00
68889;BME280;55930;47.412;8.790;2023-03-01T07:38:04;94725.38;;;-0.93;100.00
68889;BME280;55930;47.412;8.790;2023-03-01T07:41:24;94731.03;;;-1.09;100.00
68889;BME280;55930;47.412;8.790;2023-03-01T07:44:45;94728.84;;;-1.14;100.00
68889;BME280;55930;47.412;8.790;2023-03-01T07:48:05;94727.66;;;-1.02;100.00
68889;BME280;55930;47.412;8.790;2023-03-01T07:51:26;94728.44;;;-1.05;100.00
68889;BME280;55930;47.412;8.790;2023-03-01T07:54:46;94724.31;;;-1.03;100.00
68889;BME280;55930;47.412;8.790;2023-03-01T07:58:06;94732.44;;;-0.90;100.00
68889;BME280;55930;47.412;8.790;2023-03-01T08:01:27;94725.38;;;-0.93;100.00
68889;BME280;55930;47.412;8.790;2023-03-01T08:04:47;94721.97;;;-0.80;100.00
68889;BME280;55930;47.412;8.790;2023-03-01T08:08:08;94718.97;;;-0.78;100.00
68889;BME280;55930;47.412;8.790;2023-03-01T08:11:28;94720.59;;;-1.02;100.00
68889;BME280;55930;47.412;8.790;2023-03-01T08:14:49;94724.34;;;-1.10;100.00
68889;BME280;55930;47.412;8.790;2023-03-01T08:18:09;94719.09;;;-0.99;100.00
68889;BME280;55930;47.412;8.790;2023-03-01T08:21:32;94719.44;;;-0.90;100.00
68889;BME280;55930;47.412;8.790;2023-03-01T08:24:54;94714.91;;;-0.79;100.00
68889;BME280;55930;47.412;8.790;2023-03-01T08:28:15;94704.91;;;-0.88;100.00
68889;BME280;55930;47.412;8.790;2023-03-01T08:31:39;94700.84;;;-0.92;100.00
68889;BME280;55930;47.412;8.790;2023-03-01T08:34:59;94697.03;;;-0.73;100.00
68889;BME280;55930;47.412;8.790;2023-03-01T08:38:20;94698.94;;;-0.81;100.00
68889;BME280;55930;47.412;8.790;2023-03-01T08:41:43;94695.81;;;-0.62;100.00
68889;BME280;55930;47.412;8.790;2023-03-01T08:45:06;94707.81;;;-0.75;100.00
68889;BME280;55930;47.412;8.790;2023-03-01T08:48:28;94706.13;;;-0.48;100.00
68889;BME280;55930;47.412;8.790;2023-03-01T08:51:49;94707.06;;;-0.72;100.00
68889;BME280;55930;47.412;8.790;2023-03-01T08:55:09;94704.41;;;-0.65;100.00
68889;BME280;55930;47.412;8.790;2023-03-01T08:58:30;94704.78;;;-0.66;100.00
68889;BME280;55930;47.412;8.790;2023-03-01T09:01:50;94697.94;;;-0.46;100.00
68889;BME280;55930;47.412;8.790;2023-03-01T09:05:11;94695.69;;;-0.41;100.00
68889;BME280;55930;47.412;8.790;2023-03-01T09:08:35;94695.50;;;-0.71;100.00
68889;BME280;55930;47.412;8.790;2023-03-01T09:11:55;94690.84;;;-0.46;100.00
68889;BME280;55930;47.412;8.790;2023-03-01T09:15:16;94683.16;;;-0.60;100.00
68889;BME280;55930;47.412;8.790;2023-03-01T09:18:36;94678.28;;;-0.54;100.00
68889;BME280;55930;47.412;8.790;2023-03-01T09:21:57;94680.56;;;-0.60;100.00
68889;BME280;55930;47.412;8.790;2023-03-01T09:25:18;94675.16;;;-0.39;100.00
68889;BME280;55930;47.412;8.790;2023-03-01T09:28:39;94678.13;;;-0.33;100.00
68889;BME280;55930;47.412;8.790;2023-03-01T09:32:01;94674.84;;;-0.44;100.00
68889;BME280;55930;47.412;8.790;2023-03-01T09:35:21;94686.69;;;-0.32;100.00
68889;BME280;55930;47.412;8.790;2023-03-01T09:38:43;94682.94;;;-0.31;100.00
68889;BME280;55930;47.412;8.790;2023-03-01T09:42:03;94680.75;;;-0.36;100.00
68889;BME280;55930;47.412;8.790;2023-03-01T09:45:29;94686.00;;;-0.44;100.00
68889;BME280;55930;47.412;8.790;2023-03-01T09:49:01;94678.50;;;-0.34;100.00
68889;BME280;55930;47.412;8.790;2023-03-01T09:56:14;94664.66;;;-0.24;100.00
68889;BME280;55930;47.412;8.790;2023-03-01T10:03:43;94664.59;;;-0.21;100.00
68889;BME280;55930;47.412;8.790;2023-03-01T10:07:17;94663.84;;;-0.18;100.00
68889;BME280;55930;47.412;8.790;2023-03-01T10:10:44;94667.97;;;-0.24;100.00
68889;BME280;55930;47.412;8.790;2023-03-01T10:17:57;94666.16;;;-0.27;100.00
68889;BME280;55930;47.412;8.790;2023-03-01T10:21:20;94661.47;;;-0.05;100.00
68889;BME280;55930;47.412;8.790;2023-03-01T10:24:41;94655.13;;;-0.42;100.00
68889;BME280;55930;47.412;8.790;2023-03-01T10:28:07;94651.13;;;-0.12;100.00
68889;BME280;55930;47.412;8.790;2023-03-01T10:31:44;94654.47;;;-0.12;100.00
68889;BME280;55930;47.412;8.790;2023-03-01T10:35:20;94647.75;;;-0.09;100.00
68889;BME280;55930;47.412;8.790;2023-03-01T10:38:53;94644.28;;;0.01;100.00
68889;BME280;55930;47.412;8.790;2023-03-01T10:42:29;94649.41;;;-0.26;100.00
68889;BME280;55930;47.412;8.790;2023-03-01T10:45:51;94645.16;;;-0.09;100.00
68889;BME280;55930;47.412;8.790;2023-03-01T10:52:41;94646.19;;;-0.03;100.00
68889;BME280;55930;47.412;8.790;2023-03-01T10:56:12;94640.16;;;0.07;100.00
68889;BME280;55930;47.412;8.790;2023-03-01T10:59:37;94642.19;;;-0.11;100.00
68889;BME280;55930;47.412;8.790;2023-03-01T11:06:21;94649.28;;;-0.15;100.00
68889;BME280;55930;47.412;8.790;2023-03-01T11:09:42;94644.84;;;0.19;99.96
68889;BME280;55930;47.412;8.790;2023-03-01T11:13:28;94640.03;;;-0.23;100.00
68889;BME280;55930;47.412;8.790;2023-03-01T11:17:05;94641.66;;;0.05;100.00
68889;BME280;55930;47.412;8.790;2023-03-01T11:20:35;94646.09;;;0.08;100.00
68889;BME280;55930;47.412;8.790;2023-03-01T11:23:59;94640.25;;;-0.07;100.00
68889;BME280;55930;47.412;8.790;2023-03-01T11:27:26;94638.41;;;-0.07;100.00
68889;BME280;55930;47.412;8.790;2023-03-01T11:34:15;94629.94;;;0.20;100.00
68889;BME280;55930;47.412;8.790;2023-03-01T11:37:49;94631.41;;;0.21;99.96
68889;BME280;55930;47.412;8.790;2023-03-01T11:41:26;94624.72;;;0.20;100.00
68889;BME280;55930;47.412;8.790;2023-03-01T11:44:53;94621.84;;;0.11;99.56
68889;BME280;55930;47.412;8.790;2023-03-01T11:55:29;94624.94;;;0.32;99.31
68889;BME280;55930;47.412;8.790;2023-03-01T12:09:50;94596.47;;;0.15;97.55
68889;BME280;55930;47.412;8.790;2023-03-01T12:31:49;94581.91;;;0.17;98.45
68889;BME280;55930;47.412;8.790;2023-03-01T12:38:56;94572.44;;;0.30;97.53
68889;BME280;55930;47.412;8.790;2023-03-01T12:42:39;94563.25;;;0.19;98.05
68889;BME280;55930;47.412;8.790;2023-03-01T12:46:14;94562.78;;;0.27;96.56
68889;BME280;55930;47.412;8.790;2023-03-01T12:49:44;94567.97;;;0.58;96.67
68889;BME280;55930;47.412;8.790;2023-03-01T12:53:20;94571.63;;;0.33;95.91
68889;BME280;55930;47.412;8.790;2023-03-01T12:56:42;94565.84;;;0.49;96.42
68889;BME280;55930;47.412;8.790;2023-03-01T13:11:06;94554.72;;;0.45;97.00
68889;BME280;55930;47.412;8.790;2023-03-01T13:21:30;94559.56;;;0.47;97.92
68889;BME280;55930;47.412;8.790;2023-03-01T13:25:02;94545.88;;;0.39;99.04
68889;BME280;55930;47.412;8.790;2023-03-01T13:32:24;94563.03;;;0.36;97.49
68889;BME280;55930;47.412;8.790;2023-03-01T13:35:45;94560.81;;;0.35;97.79
68889;BME280;55930;47.412;8.790;2023-03-01T13:39:26;94568.34;;;0.29;98.22
68889;BME280;55930;47.412;8.790;2023-03-01T13:42:54;94576.41;;;0.08;98.16
68889;BME280;55930;47.412;8.790;2023-03-01T13:46:21;94582.91;;;0.27;98.21
68889;BME280;55930;47.412;8.790;2023-03-01T13:50:02;94580.34;;;0.23;98.21
68889;BME280;55930;47.412;8.790;2023-03-01T13:53:25;94580.69;;;0.25;98.66
68889;BME280;55930;47.412;8.790;2023-03-01T13:56:46;94573.75;;;0.46;98.04
68889;BME280;55930;47.412;8.790;2023-03-01T14:00:25;94578.44;;;0.27;97.47
68889;BME280;55930;47.412;8.790;2023-03-01T14:03:46;94585.13;;;0.28;98.65
68889;BME280;55930;47.412;8.790;2023-03-01T14:07:19;94580.53;;;0.40;97.68
68889;BME280;55930;47.412;8.790;2023-03-01T14:11:35;94578.50;;;0.24;98.40
68889;BME280;55930;47.412;8.790;2023-03-01T14:14:48;94573.38;;;0.44;98.63
68889;BME280;55930;47.412;8.790;2023-03-01T14:18:29;94578.91;;;0.49;98.69
68889;BME280;55930;47.412;8.790;2023-03-01T14:22:04;94576.47;;;0.35;98.47
68889;BME280;55930;47.412;8.790;2023-03-01T14:25:32;94569.19;;;0.23;98.31
68889;BME280;55930;47.412;8.790;2023-03-01T14:28:53;94558.31;;;0.28;98.23
68889;BME280;55930;47.412;8.790;2023-03-01T14:32:22;94550.56;;;0.21;98.94
68889;BME280;55930;47.412;8.790;2023-03-01T14:35:53;94557.06;;;0.40;97.70
68889;BME280;55930;47.412;8.790;2023-03-01T14:39:23;94548.78;;;0.14;98.06
68889;BME280;55930;47.412;8.790;2023-03-01T14:42:45;94561.75;;;0.48;97.98
68889;BME280;55930;47.412;8.790;2023-03-01T14:46:06;94554.94;;;0.27;97.62
68889;BME280;55930;47.412;8.790;2023-03-01T14:49:30;94549.00;;;0.27;98.38
68889;BME280;55930;47.412;8.790;2023-03-01T14:52:56;94554.34;;;0.16;98.65
68889;BME280;55930;47.412;8.790;2023-03-01T14:56:18;94557.94;;;0.26;98.50
68889;BME280;55930;47.412;8.790;2023-03-01T14:59:38;94555.22;;;0.36;98.91
68889;BME280;55930;47.412;8.790;2023-03-01T15:17:13;94552.81;;;0.19;99.33
68889;BME280;55930;47.412;8.790;2023-03-01T15:20:34;94556.38;;;0.02;99.08
68889;BME280;55930;47.412;8.790;2023-03-01T15:23:57;94562.03;;;-0.04;100.00
68889;BME280;55930;47.412;8.790;2023-03-01T15:27:21;94563.31;;;-0.19;100.00
68889;BME280;55930;47.412;8.790;2023-03-01T15:30:42;94567.25;;;-0.04;99.83
68889;BME280;55930;47.412;8.790;2023-03-01T15:34:09;94563.53;;;-0.06;99.80
68889;BME280;55930;47.412;8.790;2023-03-01T15:37:49;94560.53;;;-0.05;99.80
68889;BME280;55930;47.412;8.790;2023-03-01T15:41:23;94565.41;;;-0.07;99.67
68889;BME280;55930;47.412;8.790;2023-03-01T15:44:44;94563.53;;;-0.06;98.95
68889;BME280;55930;47.412;8.790;2023-03-01T15:48:18;94557.72;;;-0.17;99.62
68889;BME280;55930;47.412;8.790;2023-03-01T15:51:41;94564.34;;;-0.13;99.42
68889;BME280;55930;47.412;8.790;2023-03-01T15:55:06;94564.41;;;-0.16;99.64
68889;BME280;55930;47.412;8.790;2023-03-01T15:58:27;94552.28;;;-0.33;100.00
68889;BME280;55930;47.412;8.790;2023-03-01T16:01:47;94552.88;;;-0.19;100.00
68889;BME280;55930;47.412;8.790;2023-03-01T16:05:29;94546.84;;;-0.12;100.00
68889;BME280;55930;47.412;8.790;2023-03-01T16:08:53;94551.75;;;-0.18;100.00
68889;BME280;55930;47.412;8.790;2023-03-01T16:12:16;94555.50;;;-0.19;100.00
68889;BME280;55930;47.412;8.790;2023-03-01T16:15:41;94556.25;;;-0.22;100.00
68889;BME280;55930;47.412;8.790;2023-03-01T16:19:01;94561.81;;;-0.16;100.00
68889;BME280;55930;47.412;8.790;2023-03-01T16:22:22;94553.25;;;-0.20;100.00
68889;BME280;55930;47.412;8.790;2023-03-01T16:25:45;94544.78;;;-0.28;100.00
68889;BME280;55930;47.412;8.790;2023-03-01T16:29:05;94545.84;;;-0.22;99.77
68889;BME280;55930;47.412;8.790;2023-03-01T16:32:25;94550.38;;;-0.29;100.00
68889;BME280;55930;47.412;8.790;2023-03-01T16:35:46;94559.25;;;-0.23;99.72
68889;BME280;55930;47.412;8.790;2023-03-01T16:39:06;94550.19;;;-0.12;99.81
68889;BME280;55930;47.412;8.790;2023-03-01T16:42:27;94551.44;;;-0.23;100.00
68889;BME280;55930;47.412;8.790;2023-03-01T16:45:48;94552.16;;;-0.23;100.00
68889;BME280;55930;47.412;8.790;2023-03-01T16:49:08;94556.19;;;-0.15;100.00
68889;BME280;55930;47.412;8.790;2023-03-01T16:52:29;94554.09;;;-0.30;99.91
68889;BME280;55930;47.412;8.790;2023-03-01T16:55:57;94560.78;;;-0.26;100.00
68889;BME280;55930;47.412;8.790;2023-03-01T16:59:17;94561.84;;;-0.23;100.00
68889;BME280;55930;47.412;8.790;2023-03-01T17:02:41;94574.56;;;-0.25;100.00
68889;BME280;55930;47.412;8.790;2023-03-01T17:06:09;94568.97;;;-0.27;100.00
68889;BME280;55930;47.412;8.790;2023-03-01T17:09:34;94573.03;;;-0.23;100.00
68889;BME280;55930;47.412;8.790;2023-03-01T17:12:54;94566.72;;;-0.25;100.00
68889;BME280;55930;47.412;8.790;2023-03-01T17:16:18;94581.94;;;-0.20;100.00
68889;BME280;55930;47.412;8.790;2023-03-01T17:19:39;94578.94;;;-0.19;100.00
68889;BME280;55930;47.412;8.790;2023-03-01T17:23:02;94583.50;;;-0.26;100.00
68889;BME280;55930;47.412;8.790;2023-03-01T17:26:22;94586.47;;;-0.28;100.00
68889;BME280;55930;47.412;8.790;2023-03-01T17:29:43;94596.09;;;-0.21;100.00
68889;BME280;55930;47.412;8.790;2023-03-01T17:33:03;94598.00;;;-0.25;100.00
68889;BME280;55930;47.412;8.790;2023-03-01T17:36:24;94597.56;;;-0.20;100.00
68889;BME280;55930;47.412;8.790;2023-03-01T17:39:45;94586.88;;;-0.29;100.00
68889;BME280;55930;47.412;8.790;2023-03-01T17:43:05;94595.41;;;-0.25;100.00
68889;BME280;55930;47.412;8.790;2023-03-01T17:46:26;94589.09;;;-0.28;100.00
68889;BME280;55930;47.412;8.790;2023-03-01T17:49:47;94598.78;;;-0.32;100.00
68889;BME280;55930;47.412;8.790;2023-03-01T17:53:07;94595.44;;;-0.29;100.00
68889;BME280;55930;47.412;8.790;2023-03-01T17:56:29;94599.50;;;-0.28;100.00
68889;BME280;55930;47.412;8.790;2023-03-01T17:59:51;94602.81;;;-0.24;100.00
68889;BME280;55930;47.412;8.790;2023-03-01T18:03:14;94600.94;;;-0.23;100.00
68889;BME280;55930;47.412;8.790;2023-03-01T18:06:36;94599.75;;;-0.15;100.00
68889;BME280;55930;47.412;8.790;2023-03-01T18:09:57;94594.22;;;-0.17;100.00
68889;BME280;55930;47.412;8.790;2023-03-01T18:13:18;94598.34;;;-0.23;100.00
68889;BME280;55930;47.412;8.790;2023-03-01T18:16:39;94594.91;;;-0.13;100.00
68889;BME280;55930;47.412;8.790;2023-03-01T18:19:59;94600.84;;;-0.13;100.00
68889;BME280;55930;47.412;8.790;2023-03-01T18:23:20;94594.97;;;-0.20;100.00
68889;BME280;55930;47.412;8.790;2023-03-01T18:26:40;94590.88;;;-0.21;100.00
68889;BME280;55930;47.412;8.790;2023-03-01T18:30:01;94596.44;;;-0.19;100.00
68889;BME280;55930;47.412;8.790;2023-03-01T18:33:22;94603.09;;;-0.15;100.00
68889;BME280;55930;47.412;8.790;2023-03-01T18:36:42;94590.84;;;-0.18;100.00
68889;BME280;55930;47.412;8.790;2023-03-01T18:40:03;94600.84;;;-0.13;100.00
68889;BME280;55930;47.412;8.790;2023-03-01T18:43:24;94590.72;;;-0.07;100.00
68889;BME280;55930;47.412;8.790;2023-03-01T18:46:47;94594.06;;;-0.07;100.00
68889;BME280;55930;47.412;8.790;2023-03-01T18:50:08;94593.00;;;-0.09;100.00
68889;BME280;55930;47.412;8.790;2023-03-01T18:53:29;94598.69;;;-0.18;100.00
68889;BME280;55930;47.412;8.790;2023-03-01T18:56:49;94587.91;;;-0.20;100.00
68889;BME280;55930;47.412;8.790;2023-03-01T19:00:10;94580.75;;;-0.16;100.00
68889;BME280;55930;47.412;8.790;2023-03-01T19:03:31;94579.25;;;-0.13;100.00
68889;BME280;55930;47.412;8.790;2023-03-01T19:06:52;94577.38;;;-0.13;100.00
68889;BME280;55930;47.412;8.790;2023-03-01T19:10:13;94575.81;;;-0.07;100.00
68889;BME280;55930;47.412;8.790;2023-03-01T19:13:34;94569.06;;;-0.01;100.00
68889;BME280;55930;47.412;8.790;2023-03-01T19:16:56;94564.28;;;-0.06;100.00
68889;BME280;55930;47.412;8.790;2023-03-01T19:20:17;94565.81;;;-0.08;100.00
68889;BME280;55930;47.412;8.790;2023-03-01T19:23:39;94550.19;;;-0.12;100.00
68889;BME280;55930;47.412;8.790;2023-03-01T19:26:59;94543.19;;;-0.18;100.00
68889;BME280;55930;47.412;8.790;2023-03-01T19:30:20;94536.81;;;-0.14;100.00
68889;BME280;55930;47.412;8.790;2023-03-01T19:33:42;94534.19;;;-0.14;100.00
68889;BME280;55930;47.412;8.790;2023-03-01T19:37:03;94533.78;;;-0.09;100.00
68889;BME280;55930;47.412;8.790;2023-03-01T19:40:26;94528.59;;;-0.12;100.00